Flight Track Log - Related Links

Times and Time Zones

All times are in EDT time to prevent confusion due to time zone crossing. See the SKW5247 flight status page for this flight to view local times or setup timezone preferences in your user account.

Time Position Orientation Groundspeed Altitude Reporting Facility
EDT Latitude Longitude Course Direction KTS MPH feet Rate Location/Type
Tue 08:38:00 PM 30.4024 -95.1393 23° Northeast  Level Estimated
Tue 08:39:00 PM 30.5068 -95.0885 23° Northeast  Level Estimated
Tue 08:40:00 PM 30.6112 -95.0375 23° Northeast  Level Estimated
Tue 08:41:00 PM 30.7157 -94.9865 23° Northeast  Level Estimated
Tue 08:42:00 PM 30.8200 -94.9354 23° Northeast  Level Estimated
Tue 08:43:00 PM 30.9244 -94.8841 23° Northeast  Level Estimated
Tue 08:44:00 PM 31.0287 -94.8327 23° Northeast  Level Estimated
Tue 08:45:00 PM 31.1331 -94.7813 23° Northeast  Level Estimated
Tue 08:46:00 PM 31.2374 -94.7297 23° Northeast  Level Estimated
Tue 08:47:00 PM 31.3416 -94.6780 23° Northeast  Level Estimated
Tue 08:48:00 PM 31.4459 -94.6262 23° Northeast  Level Estimated
Tue 08:49:00 PM 31.5501 -94.5742 23° Northeast  Level Estimated
Tue 08:50:00 PM 31.6543 -94.5222 23° Northeast  Level Estimated
Tue 08:51:00 PM 31.7585 -94.4700 23° Northeast  Level Estimated
Tue 08:52:00 PM 31.8627 -94.4177 23° Northeast  Level Estimated
Tue 08:53:00 PM 31.9668 -94.3653 23° Northeast  Level Estimated
Tue 08:54:00 PM 32.0710 -94.3128 23° Northeast  Level Estimated
Tue 08:55:00 PM 32.1751 -94.2601 23° Northeast  Level Estimated
Tue 08:56:00 PM 32.2792 -94.2074 23° Northeast  Level Estimated
Tue 08:57:00 PM 32.3832 -94.1545 23° Northeast  Level Estimated
Tue 08:58:00 PM 32.4873 -94.1015 23° Northeast  Level Estimated
Tue 08:59:00 PM 32.5913 -94.0483 23° Northeast  Level Estimated
Tue 09:00:00 PM 32.6953 -93.9951 23° Northeast  Level Estimated
Tue 09:01:00 PM 32.7993 -93.9417 23° Northeast  Level Estimated
Tue 09:02:00 PM 32.9032 -93.8882 23° Northeast  Level Estimated
Tue 09:03:00 PM 33.0071 -93.8346 23° Northeast  Level Estimated
Tue 09:04:00 PM 33.1110 -93.7808 23° Northeast  Level Estimated
Tue 09:05:00 PM 33.2149 -93.7269 23° Northeast  Level Estimated
Tue 09:06:00 PM 33.3188 -93.6729 23° Northeast  Level Estimated
Tue 09:07:00 PM 33.4226 -93.6188 24° Northeast  Level Estimated
Tue 09:08:00 PM 33.5264 -93.5645 24° Northeast  Level Estimated
Tue 09:09:00 PM 33.6302 -93.5101 24° Northeast  Level Estimated
Tue 09:10:00 PM 33.7340 -93.4556 24° Northeast  Level Estimated
Tue 09:11:00 PM 33.8377 -93.4009 24° Northeast  Level Estimated
Tue 09:12:00 PM 33.9414 -93.3461 24° Northeast  Level Estimated
Tue 09:13:00 PM 34.0451 -93.2912 24° Northeast  Level Estimated
Tue 09:14:00 PM 34.1488 -93.2361 24° Northeast  Level Estimated
Tue 09:15:00 PM 34.2524 -93.1809 24° Northeast  Level Estimated
Tue 09:16:00 PM 34.3560 -93.1256 24° Northeast  Level Estimated
Tue 09:17:00 PM 34.4596 -93.0701 24° Northeast  Level Estimated
Tue 09:18:00 PM 34.5632 -93.0145 24° Northeast  Level Estimated
Tue 09:19:00 PM 34.6667 -92.9588 24° Northeast  Level Estimated
Tue 09:20:00 PM 34.7703 -92.9029 24° Northeast  Level Estimated
Tue 09:21:00 PM 34.8737 -92.8468 24° Northeast  Level Estimated
Tue 09:22:00 PM 34.9772 -92.7907 24° Northeast  Level Estimated
Tue 09:23:00 PM 35.0807 -92.7344 24° Northeast  Level Estimated
Tue 09:24:00 PM 35.1841 -92.6779 24° Northeast  Level Estimated
Tue 09:25:00 PM 35.2875 -92.6213 24° Northeast  Level Estimated
Tue 09:26:00 PM 35.3908 -92.5646 24° Northeast  Level Estimated
Tue 09:27:00 PM 35.4941 -92.5077 24° Northeast  Level Estimated
Tue 09:28:00 PM 35.5975 -92.4506 24° Northeast  Level Estimated
Tue 09:29:00 PM 35.7007 -92.3935 24° Northeast  Level Estimated
Tue 09:30:00 PM 35.8040 -92.3361 24° Northeast  Level Estimated
Tue 09:31:00 PM 35.9072 -92.2786 24° Northeast  Level Estimated
Tue 09:32:00 PM 36.0104 -92.2210 24° Northeast  Level Estimated
Tue 09:33:00 PM 36.1136 -92.1632 24° Northeast  Level Estimated
Tue 09:34:00 PM 36.2167 -92.1053 24° Northeast  Level Estimated
Tue 09:35:00 PM 36.3198 -92.0472 24° Northeast  Level Estimated
Tue 09:36:00 PM 36.4229 -91.9890 24° Northeast  Level Estimated
Tue 09:37:00 PM 36.5260 -91.9306 24° Northeast  Level Estimated
Tue 09:38:00 PM 36.6290 -91.8720 25° Northeast  Level Estimated
Tue 09:39:00 PM 36.7320 -91.8133 25° Northeast  Level Estimated
Tue 09:40:00 PM 36.8350 -91.7544 25° Northeast  Level Estimated
Tue 09:41:00 PM 36.9379 -91.6954 25° Northeast  Level Estimated
Tue 09:42:00 PM 37.0408 -91.6363 25° Northeast  Level Estimated
Tue 09:43:00 PM 37.1437 -91.5769 25° Northeast  Level Estimated
Tue 09:44:00 PM 37.2466 -91.5174 25° Northeast  Level Estimated
Tue 09:45:00 PM 37.3494 -91.4577 25° Northeast  Level Estimated
Tue 09:46:00 PM 37.4522 -91.3979 25° Northeast  Level Estimated
Tue 09:47:00 PM 37.5549 -91.3379 25° Northeast  Level Estimated
Tue 09:48:00 PM 37.6577 -91.2777 25° Northeast  Level Estimated
Tue 09:49:00 PM 37.7604 -91.2174 25° Northeast  Level Estimated
Tue 09:50:00 PM 37.8630 -91.1569 25° Northeast  Level Estimated
Tue 09:51:00 PM 37.9657 -91.0962 25° Northeast  Level Estimated
Tue 09:52:00 PM 38.0683 -91.0354 25° Northeast  Level Estimated
Tue 09:53:00 PM 38.1709 -90.9744 25° Northeast  Level Estimated
Tue 09:54:00 PM 38.2734 -90.9132 25° Northeast  Level Estimated
Tue 09:55:00 PM 38.3759 -90.8519 25° Northeast  Level Estimated
Tue 09:56:00 PM 38.4784 -90.7903 25° Northeast  Level Estimated
Tue 09:57:00 PM 38.5809 -90.7286 25° Northeast  Level Estimated
Tue 09:58:00 PM 38.6833 -90.6667 25° Northeast  Level Estimated
Tue 09:59:00 PM 38.7857 -90.6047 25° Northeast  Level Estimated
Tue 10:00:00 PM 38.8880 -90.5425 25° Northeast  Level Estimated
Tue 10:01:00 PM 38.9903 -90.4801 25° Northeast  Level Estimated
Tue 10:02:00 PM 39.0926 -90.4175 25° Northeast  Level Estimated
Tue 10:03:00 PM 39.1949 -90.3547 25° Northeast  Level Estimated
Tue 10:04:00 PM 39.2971 -90.2917 25° Northeast  Level Estimated
Tue 10:05:00 PM 39.3993 -90.2286 26° Northeast  Level Estimated
Tue 10:06:00 PM 39.5014 -90.1653 26° Northeast  Level Estimated
Tue 10:07:00 PM 39.6036 -90.1018 26° Northeast  Level Estimated
Tue 10:08:00 PM 39.7057 -90.0381 26° Northeast  Level Estimated
Tue 10:09:00 PM 39.8077 -89.9742 26° Northeast  Level Estimated
Tue 10:10:00 PM 39.9097 -89.9101 26° Northeast  Level Estimated
Tue 10:11:00 PM 40.0117 -89.8458 26° Northeast  Level Estimated
Tue 10:12:00 PM 40.1136 -89.7814 26° Northeast  Level Estimated
Tue 10:13:00 PM 40.2155 -89.7167 26° Northeast  Level Estimated
Tue 10:14:00 PM 40.3174 -89.6518 26° Northeast  Level Estimated
Tue 10:15:00 PM 40.4192 -89.5868 26° Northeast  Level Estimated
Tue 10:16:00 PM 40.5210 -89.5216 26° Northeast  Level Estimated
Tue 10:17:00 PM 40.6228 -89.4561 26° Northeast  Level Estimated
Tue 10:18:00 PM 40.7245 -89.3905 26° Northeast  Level Estimated
Tue 10:19:00 PM 40.8262 -89.3246 26° Northeast  Level Estimated
Tue 10:20:00 PM 40.9278 -89.2586 26° Northeast  Level Estimated
Tue 10:21:00 PM 41.0294 -89.1923 26° Northeast  Level Estimated
Tue 10:22:00 PM 41.1310 -89.1259 26° Northeast  Level Estimated
Tue 10:23:00 PM 41.2326 -89.0592 26° Northeast  Level Estimated
Tue 10:24:00 PM 41.3340 -88.9924 26° Northeast  Level Estimated
Tue 10:25:00 PM 41.4355 -88.9253 26° Northeast  Level Estimated
Tue 10:26:00 PM 41.5369 -88.8580 26° Northeast  Level Estimated
Tue 10:27:00 PM 41.6383 -88.7905 26° Northeast  Level Estimated
Tue 10:28:00 PM 41.7396 -88.7228 26° Northeast  Level Estimated
Tue 10:29:00 PM 41.8409 -88.6549 27° Northeast  Level Estimated
Tue 10:30:00 PM 41.9422 -88.5867 27° Northeast  Level Estimated
Tue 10:31:00 PM 42.0434 -88.5184 27° Northeast  Level Estimated
Tue 10:32:00 PM 42.1446 -88.4498 27° Northeast  Level Estimated
Tue 10:33:00 PM 42.2457 -88.3810 27° Northeast  Level Estimated
Tue 10:34:00 PM 42.3468 -88.3120 27° Northeast  Level Estimated
Tue 10:35:00 PM 42.4479 -88.2427 27° Northeast  Level Estimated
Tue 10:36:00 PM 42.5489 -88.1733 27° Northeast  Level Estimated
Tue 10:37:00 PM 42.6499 -88.1036 27° Northeast  Level Estimated
Tue 10:38:00 PM 42.7508 -88.0337 27° Northeast  Level Estimated
Tue 10:39:00 PM 42.8517 -87.9635 27° Northeast  Level Estimated
Tue 10:40:00 PM 42.9469 -87.8971 27° Northeast  Level Estimated
Tue 10:41:00 PM 42.9469 -87.8971 59° Northeast  Level Estimated
Tue 10:42:00 PM 42.9469 -87.8971 59° Northeast  Level Estimated
Tue 10:43:00 PM 42.9469 -87.8971 59° Northeast  Level Estimated
Tue 10:44:00 PM 42.9469 -87.8971 59° Northeast  Level Estimated
Tue 10:45:00 PM 42.9469 -87.8971 59° Northeast  Level Estimated
Tue 10:46:00 PM 42.9469 -87.8971 59° Northeast  Level Estimated
Tue 10:47:00 PM 42.9469 -87.8971 59° Northeast  Level Estimated
Tue 10:48:00 PM 42.9469 -87.8971 59° Northeast  Level Estimated
Tue 10:49:00 PM 42.9469 -87.8971 59° Northeast  Level Estimated
Tue 10:50:00 PM 42.9469 -87.8971 59° Northeast  Level Estimated

Login

Don't have an account? Register now (free) for customized features, flight alerts, and more!